sensor_id;sensor_type;location;lat;lon;timestamp;temperature;humidity
20483;DHT22;10400;53.198;6.592;2023-06-04T00:00:26;13.00;97.30
20483;DHT22;10400;53.198;6.592;2023-06-04T00:02:51;13.00;99.90
20483;DHT22;10400;53.198;6.592;2023-06-04T00:05:17;13.00;99.90
20483;DHT22;10400;53.198;6.592;2023-06-04T00:07:43;13.00;99.90
20483;DHT22;10400;53.198;6.592;2023-06-04T00:10:09;12.90;99.90
20483;DHT22;10400;53.198;6.592;2023-06-04T00:12:35;13.00;99.90
20483;DHT22;10400;53.198;6.592;2023-06-04T00:15:01;12.90;99.90
20483;DHT22;10400;53.198;6.592;2023-06-04T00:17:26;12.90;99.90
20483;DHT22;10400;53.198;6.592;2023-06-04T00:19:52;12.80;99.90
20483;DHT22;10400;53.198;6.592;2023-06-04T00:22:18;12.80;99.90
20483;DHT22;10400;53.198;6.592;2023-06-04T00:24:43;12.80;99.90
20483;DHT22;10400;53.198;6.592;2023-06-04T00:27:09;12.80;99.90
20483;DHT22;10400;53.198;6.592;2023-06-04T00:29:35;12.80;99.90
20483;DHT22;10400;53.198;6.592;2023-06-04T00:32:02;12.70;99.90
20483;DHT22;10400;53.198;6.592;2023-06-04T00:34:27;12.60;99.90
20483;DHT22;10400;53.198;6.592;2023-06-04T00:36:53;12.60;99.90
20483;DHT22;10400;53.198;6.592;2023-06-04T00:39:18;12.60;99.90
20483;DHT22;10400;53.198;6.592;2023-06-04T00:41:44;12.70;99.90
20483;DHT22;10400;53.198;6.592;2023-06-04T00:44:10;12.60;99.90
20483;DHT22;10400;53.198;6.592;2023-06-04T00:46:37;12.60;99.90
20483;DHT22;10400;53.198;6.592;2023-06-04T00:49:05;12.60;99.90
20483;DHT22;10400;53.198;6.592;2023-06-04T00:51:32;12.60;99.90
20483;DHT22;10400;53.198;6.592;2023-06-04T00:53:59;12.50;99.90
20483;DHT22;10400;53.198;6.592;2023-06-04T00:56:25;12.50;99.90
20483;DHT22;10400;53.198;6.592;2023-06-04T00:58:50;12.50;99.90
20483;DHT22;10400;53.198;6.592;2023-06-04T01:01:34;12.40;99.90
20483;DHT22;10400;53.198;6.592;2023-06-04T01:04:04;12.40;99.90
20483;DHT22;10400;53.198;6.592;2023-06-04T01:06:39;12.40;99.90
20483;DHT22;10400;53.198;6.592;2023-06-04T01:09:06;12.40;99.90
20483;DHT22;10400;53.198;6.592;2023-06-04T01:11:38;12.40;99.90
20483;DHT22;10400;53.198;6.592;2023-06-04T01:14:05;12.40;99.90
20483;DHT22;10400;53.198;6.592;2023-06-04T01:27:57;12.30;99.90
20483;DHT22;10400;53.198;6.592;2023-06-04T01:30:25;12.30;99.90
20483;DHT22;10400;53.198;6.592;2023-06-04T01:32:53;12.30;99.90
20483;DHT22;10400;53.198;6.592;2023-06-04T01:35:19;12.30;99.90
20483;DHT22;10400;53.198;6.592;2023-06-04T01:37:45;12.30;99.90
20483;DHT22;10400;53.198;6.592;2023-06-04T01:40:11;12.30;99.90
20483;DHT22;10400;53.198;6.592;2023-06-04T01:42:37;12.20;99.90
20483;DHT22;10400;53.198;6.592;2023-06-04T01:45:03;12.20;99.90
20483;DHT22;10400;53.198;6.592;2023-06-04T01:47:29;12.20;99.90
20483;DHT22;10400;53.198;6.592;2023-06-04T01:49:55;12.20;99.90
20483;DHT22;10400;53.198;6.592;2023-06-04T01:52:21;12.10;99.90
20483;DHT22;10400;53.198;6.592;2023-06-04T01:54:47;12.10;99.90
20483;DHT22;10400;53.198;6.592;2023-06-04T01:57:21;12.10;99.90
20483;DHT22;10400;53.198;6.592;2023-06-04T01:59:47;12.10;99.90
20483;DHT22;10400;53.198;6.592;2023-06-04T02:02:13;12.10;99.90
20483;DHT22;10400;53.198;6.592;2023-06-04T02:04:39;12.10;99.90
20483;DHT22;10400;53.198;6.592;2023-06-04T02:07:08;12.10;99.90
20483;DHT22;10400;53.198;6.592;2023-06-04T02:09:34;12.10;99.90
20483;DHT22;10400;53.198;6.592;2023-06-04T02:12:00;12.10;99.90
20483;DHT22;10400;53.198;6.592;2023-06-04T02:14:26;12.00;99.90
20483;DHT22;10400;53.198;6.592;2023-06-04T02:16:51;12.00;99.90
20483;DHT22;10400;53.198;6.592;2023-06-04T02:19:25;11.90;99.90
20483;DHT22;10400;53.198;6.592;2023-06-04T02:21:52;11.90;99.90
20483;DHT22;10400;53.198;6.592;2023-06-04T02:24:18;11.90;99.90
20483;DHT22;10400;53.198;6.592;2023-06-04T02:26:44;11.80;99.90
20483;DHT22;10400;53.198;6.592;2023-06-04T02:29:10;11.80;99.90
20483;DHT22;10400;53.198;6.592;2023-06-04T02:31:35;11.90;99.90
20483;DHT22;10400;53.198;6.592;2023-06-04T02:34:01;11.90;99.90
20483;DHT22;10400;53.198;6.592;2023-06-04T02:36:29;11.90;99.90
20483;DHT22;10400;53.198;6.592;2023-06-04T02:38:55;11.90;99.90
20483;DHT22;10400;53.198;6.592;2023-06-04T02:41:21;11.80;99.90
20483;DHT22;10400;53.198;6.592;2023-06-04T02:43:47;11.90;99.90
20483;DHT22;10400;53.198;6.592;2023-06-04T02:46:13;11.80;99.90
20483;DHT22;10400;53.198;6.592;2023-06-04T02:48:39;11.80;99.90
20483;DHT22;10400;53.198;6.592;2023-06-04T02:51:04;11.80;99.90
20483;DHT22;10400;53.198;6.592;2023-06-04T02:53:30;11.80;99.90
20483;DHT22;10400;53.198;6.592;2023-06-04T02:55:56;11.80;99.90
20483;DHT22;10400;53.198;6.592;2023-06-04T02:58:22;11.70;99.90
20483;DHT22;10400;53.198;6.592;2023-06-04T03:00:52;11.70;99.90
20483;DHT22;10400;53.198;6.592;2023-06-04T03:03:18;11.60;99.90
20483;DHT22;10400;53.198;6.592;2023-06-04T03:05:44;11.60;99.90
20483;DHT22;10400;53.198;6.592;2023-06-04T03:08:09;11.60;99.90
20483;DHT22;10400;53.198;6.592;2023-06-04T03:10:35;11.70;99.90
20483;DHT22;10400;53.198;6.592;2023-06-04T03:13:00;11.60;99.90
20483;DHT22;10400;53.198;6.592;2023-06-04T03:15:26;11.60;99.90
20483;DHT22;10400;53.198;6.592;2023-06-04T03:17:52;11.60;99.90
20483;DHT22;10400;53.198;6.592;2023-06-04T03:20:18;11.60;99.90
20483;DHT22;10400;53.198;6.592;2023-06-04T03:22:43;11.60;99.90
20483;DHT22;10400;53.198;6.592;2023-06-04T03:25:09;11.60;99.90
20483;DHT22;10400;53.198;6.592;2023-06-04T03:27:35;11.50;99.90
20483;DHT22;10400;53.198;6.592;2023-06-04T03:30:01;11.50;99.90
20483;DHT22;10400;53.198;6.592;2023-06-04T03:32:28;11.50;99.90
20483;DHT22;10400;53.198;6.592;2023-06-04T03:34:54;11.50;99.90
20483;DHT22;10400;53.198;6.592;2023-06-04T03:37:19;11.50;99.90
20483;DHT22;10400;53.198;6.592;2023-06-04T03:39:45;11.60;99.90
20483;DHT22;10400;53.198;6.592;2023-06-04T03:42:10;11.60;99.90
20483;DHT22;10400;53.198;6.592;2023-06-04T03:44:36;11.60;99.90
20483;DHT22;10400;53.198;6.592;2023-06-04T03:47:02;11.60;99.90
20483;DHT22;10400;53.198;6.592;2023-06-04T03:49:27;11.50;99.90
20483;DHT22;10400;53.198;6.592;2023-06-04T03:51:53;11.60;99.90
20483;DHT22;10400;53.198;6.592;2023-06-04T03:54:19;11.60;99.90
20483;DHT22;10400;53.198;6.592;2023-06-04T03:56:45;11.60;99.90
20483;DHT22;10400;53.198;6.592;2023-06-04T03:59:11;11.70;99.90
20483;DHT22;10400;53.198;6.592;2023-06-04T04:01:37;11.70;99.90
20483;DHT22;10400;53.198;6.592;2023-06-04T04:04:04;11.70;99.90
20483;DHT22;10400;53.198;6.592;2023-06-04T04:06:30;11.70;99.90
20483;DHT22;10400;53.198;6.592;2023-06-04T04:08:56;11.80;99.90
20483;DHT22;10400;53.198;6.592;2023-06-04T04:11:23;11.80;99.90
20483;DHT22;10400;53.198;6.592;2023-06-04T04:13:49;11.90;99.90
20483;DHT22;10400;53.198;6.592;2023-06-04T04:16:15;12.00;99.90
20483;DHT22;10400;53.198;6.592;2023-06-04T04:18:42;12.00;99.90
20483;DHT22;10400;53.198;6.592;2023-06-04T04:21:09;12.00;99.90
20483;DHT22;10400;53.198;6.592;2023-06-04T04:23:38;12.10;99.90
20483;DHT22;10400;53.198;6.592;2023-06-04T04:26:05;12.10;99.90
20483;DHT22;10400;53.198;6.592;2023-06-04T04:28:31;12.10;99.90
20483;DHT22;10400;53.198;6.592;2023-06-04T04:30:58;12.20;99.90
20483;DHT22;10400;53.198;6.592;2023-06-04T04:33:25;12.10;99.90
20483;DHT22;10400;53.198;6.592;2023-06-04T04:35:51;12.20;99.90
20483;DHT22;10400;53.198;6.592;2023-06-04T04:38:19;12.20;99.90
20483;DHT22;10400;53.198;6.592;2023-06-04T04:40:45;12.20;99.90
20483;DHT22;10400;53.198;6.592;2023-06-04T04:43:13;12.30;99.90
20483;DHT22;10400;53.198;6.592;2023-06-04T04:45:39;12.30;99.90
20483;DHT22;10400;53.198;6.592;2023-06-04T04:48:04;12.30;99.90
20483;DHT22;10400;53.198;6.592;2023-06-04T04:50:30;12.40;99.90
20483;DHT22;10400;53.198;6.592;2023-06-04T04:52:58;12.50;99.90
20483;DHT22;10400;53.198;6.592;2023-06-04T04:55:23;12.50;99.90
20483;DHT22;10400;53.198;6.592;2023-06-04T04:57:49;12.50;99.90
20483;DHT22;10400;53.198;6.592;2023-06-04T05:00:15;12.70;99.90
20483;DHT22;10400;53.198;6.592;2023-06-04T05:02:41;12.80;99.90
20483;DHT22;10400;53.198;6.592;2023-06-04T05:05:07;12.80;99.90
20483;DHT22;10400;53.198;6.592;2023-06-04T05:07:32;12.90;99.90
20483;DHT22;10400;53.198;6.592;2023-06-04T05:09:58;12.90;99.90
20483;DHT22;10400;53.198;6.592;2023-06-04T05:12:30;13.00;99.90
20483;DHT22;10400;53.198;6.592;2023-06-04T05:14:56;13.20;99.90
20483;DHT22;10400;53.198;6.592;2023-06-04T05:17:22;13.20;99.90
20483;DHT22;10400;53.198;6.592;2023-06-04T05:19:58;13.30;99.90
20483;DHT22;10400;53.198;6.592;2023-06-04T05:22:29;13.30;99.90
20483;DHT22;10400;53.198;6.592;2023-06-04T05:24:57;13.40;99.90
20483;DHT22;10400;53.198;6.592;2023-06-04T05:27:25;13.50;99.90
20483;DHT22;10400;53.198;6.592;2023-06-04T05:29:51;13.50;99.90
20483;DHT22;10400;53.198;6.592;2023-06-04T05:32:16;13.70;99.90
20483;DHT22;10400;53.198;6.592;2023-06-04T05:34:43;13.80;99.90
20483;DHT22;10400;53.198;6.592;2023-06-04T05:37:09;13.80;99.90
20483;DHT22;10400;53.198;6.592;2023-06-04T05:39:34;13.80;99.90
20483;DHT22;10400;53.198;6.592;2023-06-04T05:42:01;13.80;99.90
20483;DHT22;10400;53.198;6.592;2023-06-04T05:44:27;13.90;99.90
20483;DHT22;10400;53.198;6.592;2023-06-04T05:46:52;13.90;99.90
20483;DHT22;10400;53.198;6.592;2023-06-04T05:49:18;14.00;99.90
20483;DHT22;10400;53.198;6.592;2023-06-04T05:51:45;14.10;99.90
20483;DHT22;10400;53.198;6.592;2023-06-04T05:54:10;14.10;99.90
20483;DHT22;10400;53.198;6.592;2023-06-04T05:56:36;14.00;99.90
20483;DHT22;10400;53.198;6.592;2023-06-04T05:59:02;14.20;99.90
20483;DHT22;10400;53.198;6.592;2023-06-04T06:01:27;14.30;99.90
20483;DHT22;10400;53.198;6.592;2023-06-04T06:03:54;14.30;99.90
20483;DHT22;10400;53.198;6.592;2023-06-04T06:06:20;14.30;99.90
20483;DHT22;10400;53.198;6.592;2023-06-04T06:08:46;14.30;99.90
20483;DHT22;10400;53.198;6.592;2023-06-04T06:11:12;14.40;99.90
20483;DHT22;10400;53.198;6.592;2023-06-04T06:13:37;14.50;99.90
20483;DHT22;10400;53.198;6.592;2023-06-04T06:16:03;14.50;99.90
20483;DHT22;10400;53.198;6.592;2023-06-04T06:18:30;14.50;99.90
20483;DHT22;10400;53.198;6.592;2023-06-04T06:20:56;14.40;99.90
20483;DHT22;10400;53.198;6.592;2023-06-04T06:23:21;14.30;99.90
20483;DHT22;10400;53.198;6.592;2023-06-04T06:25:49;14.40;99.90
20483;DHT22;10400;53.198;6.592;2023-06-04T06:28:17;14.50;99.90
20483;DHT22;10400;53.198;6.592;2023-06-04T06:30:43;14.60;99.90
20483;DHT22;10400;53.198;6.592;2023-06-04T06:33:09;14.60;99.90
20483;DHT22;10400;53.198;6.592;2023-06-04T06:35:35;14.60;99.90
20483;DHT22;10400;53.198;6.592;2023-06-04T06:38:01;14.70;99.90
20483;DHT22;10400;53.198;6.592;2023-06-04T06:40:27;14.90;99.90
20483;DHT22;10400;53.198;6.592;2023-06-04T06:42:52;15.00;99.90
20483;DHT22;10400;53.198;6.592;2023-06-04T06:45:19;15.20;99.20
20483;DHT22;10400;53.198;6.592;2023-06-04T06:47:45;15.30;63.20
20483;DHT22;10400;53.198;6.592;2023-06-04T06:50:10;15.40;27.60
20483;DHT22;10400;53.198;6.592;2023-06-04T06:52:37;15.50;7.20
20483;DHT22;10400;53.198;6.592;2023-06-04T06:55:06;15.60;1.00
20483;DHT22;10400;53.198;6.592;2023-06-04T06:57:33;15.70;1.00
20483;DHT22;10400;53.198;6.592;2023-06-04T06:59:59;15.80;1.00
20483;DHT22;10400;53.198;6.592;2023-06-04T07:02:24;15.90;1.00
20483;DHT22;10400;53.198;6.592;2023-06-04T07:04:50;16.00;1.00
20483;DHT22;10400;53.198;6.592;2023-06-04T07:07:16;16.10;1.00
20483;DHT22;10400;53.198;6.592;2023-06-04T07:09:42;16.10;1.00
20483;DHT22;10400;53.198;6.592;2023-06-04T07:12:08;16.20;1.00
20483;DHT22;10400;53.198;6.592;2023-06-04T07:14:33;16.20;1.00
20483;DHT22;10400;53.198;6.592;2023-06-04T07:16:59;16.10;1.00
20483;DHT22;10400;53.198;6.592;2023-06-04T07:19:25;16.00;1.00
20483;DHT22;10400;53.198;6.592;2023-06-04T07:21:53;16.20;1.00
20483;DHT22;10400;53.198;6.592;2023-06-04T07:24:19;16.30;1.00
20483;DHT22;10400;53.198;6.592;2023-06-04T07:26:45;16.50;1.00
20483;DHT22;10400;53.198;6.592;2023-06-04T07:29:11;16.50;1.00
20483;DHT22;10400;53.198;6.592;2023-06-04T07:31:36;16.50;1.00
20483;DHT22;10400;53.198;6.592;2023-06-04T07:34:02;16.60;1.00
20483;DHT22;10400;53.198;6.592;2023-06-04T07:36:28;16.60;99.90
20483;DHT22;10400;53.198;6.592;2023-06-04T07:38:54;16.30;99.90
20483;DHT22;10400;53.198;6.592;2023-06-04T07:41:20;16.50;1.00
20483;DHT22;10400;53.198;6.592;2023-06-04T07:43:45;16.60;99.90
20483;DHT22;10400;53.198;6.592;2023-06-04T07:46:11;16.80;99.90
20483;DHT22;10400;53.198;6.592;2023-06-04T07:48:37;16.90;1.00
20483;DHT22;10400;53.198;6.592;2023-06-04T07:51:02;16.90;1.00
20483;DHT22;10400;53.198;6.592;2023-06-04T07:53:29;17.00;1.00
20483;DHT22;10400;53.198;6.592;2023-06-04T07:55:56;17.00;1.00
20483;DHT22;10400;53.198;6.592;2023-06-04T07:58:22;17.20;99.90
20483;DHT22;10400;53.198;6.592;2023-06-04T08:00:48;17.30;1.00
20483;DHT22;10400;53.198;6.592;2023-06-04T08:03:14;17.30;99.90
20483;DHT22;10400;53.198;6.592;2023-06-04T08:05:43;17.30;99.90
20483;DHT22;10400;53.198;6.592;2023-06-04T08:08:09;17.40;99.90
20483;DHT22;10400;53.198;6.592;2023-06-04T08:10:34;17.40;1.00
20483;DHT22;10400;53.198;6.592;2023-06-04T08:13:00;17.50;1.00
20483;DHT22;10400;53.198;6.592;2023-06-04T08:15:26;17.60;99.90
20483;DHT22;10400;53.198;6.592;2023-06-04T08:17:51;17.70;1.00
20483;DHT22;10400;53.198;6.592;2023-06-04T08:20:17;17.80;1.00
20483;DHT22;10400;53.198;6.592;2023-06-04T08:22:43;17.90;1.00
20483;DHT22;10400;53.198;6.592;2023-06-04T08:25:08;17.80;99.90
20483;DHT22;10400;53.198;6.592;2023-06-04T08:27:34;17.90;1.00
20483;DHT22;10400;53.198;6.592;2023-06-04T08:30:00;18.00;99.90
20483;DHT22;10400;53.198;6.592;2023-06-04T08:32:26;18.00;1.00
20483;DHT22;10400;53.198;6.592;2023-06-04T08:34:51;18.20;1.00
20483;DHT22;10400;53.198;6.592;2023-06-04T08:37:17;18.20;1.00
20483;DHT22;10400;53.198;6.592;2023-06-04T08:39:43;18.20;1.00
20483;DHT22;10400;53.198;6.592;2023-06-04T08:42:22;18.20;1.00
20483;DHT22;10400;53.198;6.592;2023-06-04T08:44:51;18.30;1.00
20483;DHT22;10400;53.198;6.592;2023-06-04T08:47:20;18.40;1.00
20483;DHT22;10400;53.198;6.592;2023-06-04T08:49:50;18.40;99.90
20483;DHT22;10400;53.198;6.592;2023-06-04T08:52:19;18.50;99.90
20483;DHT22;10400;53.198;6.592;2023-06-04T08:54:51;18.50;1.00
20483;DHT22;10400;53.198;6.592;2023-06-04T08:57:21;18.60;99.90
20483;DHT22;10400;53.198;6.592;2023-06-04T08:59:47;18.70;99.90
20483;DHT22;10400;53.198;6.592;2023-06-04T09:02:15;18.60;99.90
20483;DHT22;10400;53.198;6.592;2023-06-04T09:04:42;18.40;1.00
20483;DHT22;10400;53.198;6.592;2023-06-04T09:07:10;18.60;99.90
20483;DHT22;10400;53.198;6.592;2023-06-04T09:09:38;18.10;99.90
20483;DHT22;10400;53.198;6.592;2023-06-04T09:12:08;18.20;99.90
20483;DHT22;10400;53.198;6.592;2023-06-04T09:14:34;18.30;99.90
20483;DHT22;10400;53.198;6.592;2023-06-04T09:17:00;18.40;1.00
20483;DHT22;10400;53.198;6.592;2023-06-04T09:19:25;18.60;1.00
20483;DHT22;10400;53.198;6.592;2023-06-04T09:21:59;18.60;1.00
20483;DHT22;10400;53.198;6.592;2023-06-04T09:24:41;18.60;99.90
20483;DHT22;10400;53.198;6.592;2023-06-04T09:29:38;18.60;1.00
20483;DHT22;10400;53.198;6.592;2023-06-04T09:32:04;18.80;1.00
20483;DHT22;10400;53.198;6.592;2023-06-04T09:34:30;18.80;1.00
20483;DHT22;10400;53.198;6.592;2023-06-04T09:36:57;18.60;1.00
20483;DHT22;10400;53.198;6.592;2023-06-04T09:39:23;18.70;1.00
20483;DHT22;10400;53.198;6.592;2023-06-04T09:42:02;18.80;1.00
20483;DHT22;10400;53.198;6.592;2023-06-04T09:44:29;19.00;1.00
20483;DHT22;10400;53.198;6.592;2023-06-04T09:46:56;19.20;1.00
20483;DHT22;10400;53.198;6.592;2023-06-04T09:49:22;19.10;99.90
20483;DHT22;10400;53.198;6.592;2023-06-04T09:51:48;18.80;99.90
20483;DHT22;10400;53.198;6.592;2023-06-04T09:54:14;19.00;1.00
20483;DHT22;10400;53.198;6.592;2023-06-04T09:56:43;19.10;99.90
20483;DHT22;10400;53.198;6.592;2023-06-04T09:59:09;19.10;1.00
20483;DHT22;10400;53.198;6.592;2023-06-04T10:01:39;19.00;99.90
20483;DHT22;10400;53.198;6.592;2023-06-04T10:04:07;19.00;99.90
20483;DHT22;10400;53.198;6.592;2023-06-04T10:06:35;19.20;99.90
20483;DHT22;10400;53.198;6.592;2023-06-04T10:09:08;19.30;99.90
20483;DHT22;10400;53.198;6.592;2023-06-04T10:11:39;19.20;99.90
20483;DHT22;10400;53.198;6.592;2023-06-04T10:14:12;19.10;99.90
20483;DHT22;10400;53.198;6.592;2023-06-04T10:16:41;19.00;99.90
20483;DHT22;10400;53.198;6.592;2023-06-04T10:19:07;19.20;99.90
20483;DHT22;10400;53.198;6.592;2023-06-04T10:21:34;18.90;99.90
20483;DHT22;10400;53.198;6.592;2023-06-04T10:24:02;19.00;1.00
20483;DHT22;10400;53.198;6.592;2023-06-04T10:26:27;19.10;99.90
20483;DHT22;10400;53.198;6.592;2023-06-04T10:28:53;19.40;99.90
20483;DHT22;10400;53.198;6.592;2023-06-04T10:31:21;19.60;99.90
20483;DHT22;10400;53.198;6.592;2023-06-04T10:33:48;19.60;1.00
20483;DHT22;10400;53.198;6.592;2023-06-04T10:36:18;19.60;1.00
20483;DHT22;10400;53.198;6.592;2023-06-04T10:38:52;19.80;1.00
20483;DHT22;10400;53.198;6.592;2023-06-04T10:41:19;19.70;1.00
20483;DHT22;10400;53.198;6.592;2023-06-04T10:43:47;19.70;1.00
20483;DHT22;10400;53.198;6.592;2023-06-04T10:46:16;19.80;1.00
20483;DHT22;10400;53.198;6.592;2023-06-04T10:48:54;19.60;1.00
20483;DHT22;10400;53.198;6.592;2023-06-04T10:51:33;19.60;1.00
20483;DHT22;10400;53.198;6.592;2023-06-04T10:54:00;19.30;99.90
20483;DHT22;10400;53.198;6.592;2023-06-04T10:56:28;19.40;99.90
20483;DHT22;10400;53.198;6.592;2023-06-04T10:58:54;19.50;1.00
20483;DHT22;10400;53.198;6.592;2023-06-04T11:01:29;19.40;99.90
20483;DHT22;10400;53.198;6.592;2023-06-04T11:03:57;19.70;99.90
20483;DHT22;10400;53.198;6.592;2023-06-04T11:06:24;19.50;99.90
20483;DHT22;10400;53.198;6.592;2023-06-04T11:09:05;19.70;1.00
20483;DHT22;10400;53.198;6.592;2023-06-04T11:11:31;20.00;1.00
20483;DHT22;10400;53.198;6.592;2023-06-04T11:14:07;20.00;1.00
20483;DHT22;10400;53.198;6.592;2023-06-04T11:16:34;19.70;1.00
20483;DHT22;10400;53.198;6.592;2023-06-04T11:18:59;20.00;1.00
20483;DHT22;10400;53.198;6.592;2023-06-04T11:21:25;20.00;1.00
20483;DHT22;10400;53.198;6.592;2023-06-04T11:24:00;19.70;99.90
20483;DHT22;10400;53.198;6.592;2023-06-04T11:26:36;19.90;1.00
20483;DHT22;10400;53.198;6.592;2023-06-04T11:29:06;19.80;1.00
20483;DHT22;10400;53.198;6.592;2023-06-04T11:31:43;19.80;1.00
20483;DHT22;10400;53.198;6.592;2023-06-04T11:34:09;20.00;27.80
20483;DHT22;10400;53.198;6.592;2023-06-04T11:36:37;20.10;1.00
20483;DHT22;10400;53.198;6.592;2023-06-04T11:39:04;20.30;1.00
20483;DHT22;10400;53.198;6.592;2023-06-04T11:41:33;20.20;1.00
20483;DHT22;10400;53.198;6.592;2023-06-04T11:44:05;20.20;1.00
20483;DHT22;10400;53.198;6.592;2023-06-04T11:46:39;20.30;1.00
20483;DHT22;10400;53.198;6.592;2023-06-04T11:49:05;20.20;1.00
20483;DHT22;10400;53.198;6.592;2023-06-04T11:51:31;20.50;1.00
20483;DHT22;10400;53.198;6.592;2023-06-04T11:53:58;20.60;1.00
20483;DHT22;10400;53.198;6.592;2023-06-04T11:56:24;20.60;1.00
20483;DHT22;10400;53.198;6.592;2023-06-04T11:58:51;20.70;1.00
20483;DHT22;10400;53.198;6.592;2023-06-04T12:01:17;20.60;1.00
20483;DHT22;10400;53.198;6.592;2023-06-04T12:03:43;20.70;1.00
20483;DHT22;10400;53.198;6.592;2023-06-04T12:08:54;20.20;1.00
20483;DHT22;10400;53.198;6.592;2023-06-04T12:11:32;20.20;1.00
20483;DHT22;10400;53.198;6.592;2023-06-04T12:14:05;19.90;1.00
20483;DHT22;10400;53.198;6.592;2023-06-04T12:16:32;20.20;1.00
20483;DHT22;10400;53.198;6.592;2023-06-04T12:19:08;20.30;1.00
20483;DHT22;10400;53.198;6.592;2023-06-04T12:21:34;20.50;1.00
20483;DHT22;10400;53.198;6.592;2023-06-04T12:24:10;20.50;1.00
20483;DHT22;10400;53.198;6.592;2023-06-04T12:26:37;20.40;1.00
20483;DHT22;10400;53.198;6.592;2023-06-04T12:29:13;20.70;1.00
20483;DHT22;10400;53.198;6.592;2023-06-04T12:31:40;20.60;1.00
20483;DHT22;10400;53.198;6.592;2023-06-04T12:34:06;20.60;1.00
20483;DHT22;10400;53.198;6.592;2023-06-04T12:36:31;20.70;1.00
20483;DHT22;10400;53.198;6.592;2023-06-04T12:38:59;20.80;1.00
20483;DHT22;10400;53.198;6.592;2023-06-04T12:41:27;20.90;1.00
20483;DHT22;10400;53.198;6.592;2023-06-04T12:43:53;21.00;1.00
20483;DHT22;10400;53.198;6.592;2023-06-04T12:46:18;21.10;1.00
20483;DHT22;10400;53.198;6.592;2023-06-04T12:48:44;21.10;1.00
20483;DHT22;10400;53.198;6.592;2023-06-04T12:51:09;20.90;1.00
20483;DHT22;10400;53.198;6.592;2023-06-04T12:53:41;21.00;1.00
20483;DHT22;10400;53.198;6.592;2023-06-04T12:56:08;20.70;1.00
20483;DHT22;10400;53.198;6.592;2023-06-04T12:58:34;20.70;1.00
20483;DHT22;10400;53.198;6.592;2023-06-04T13:01:00;20.80;1.00
20483;DHT22;10400;53.198;6.592;2023-06-04T13:03:26;20.90;1.00
20483;DHT22;10400;53.198;6.592;2023-06-04T13:05:52;20.80;1.00
20483;DHT22;10400;53.198;6.592;2023-06-04T13:08:19;20.60;1.00
20483;DHT22;10400;53.198;6.592;2023-06-04T13:10:49;20.40;1.00
20483;DHT22;10400;53.198;6.592;2023-06-04T13:13:16;20.60;1.00
20483;DHT22;10400;53.198;6.592;2023-06-04T13:15:42;20.40;1.00
20483;DHT22;10400;53.198;6.592;2023-06-04T13:18:09;20.30;1.00
20483;DHT22;10400;53.198;6.592;2023-06-04T13:20:36;20.20;1.00
20483;DHT22;10400;53.198;6.592;2023-06-04T13:23:02;20.40;1.00
20483;DHT22;10400;53.198;6.592;2023-06-04T13:25:28;20.60;1.00
20483;DHT22;10400;53.198;6.592;2023-06-04T13:27:54;20.50;1.00
20483;DHT22;10400;53.198;6.592;2023-06-04T13:30:21;20.60;1.00
20483;DHT22;10400;53.198;6.592;2023-06-04T13:32:47;20.60;1.00
20483;DHT22;10400;53.198;6.592;2023-06-04T13:35:12;20.50;1.00
20483;DHT22;10400;53.198;6.592;2023-06-04T13:37:38;20.30;1.00
20483;DHT22;10400;53.198;6.592;2023-06-04T13:40:04;20.70;1.00
20483;DHT22;10400;53.198;6.592;2023-06-04T13:42:30;20.70;1.00
20483;DHT22;10400;53.198;6.592;2023-06-04T13:44:56;20.90;1.00
20483;DHT22;10400;53.198;6.592;2023-06-04T13:47:21;21.00;1.00
20483;DHT22;10400;53.198;6.592;2023-06-04T13:49:47;21.10;1.00
20483;DHT22;10400;53.198;6.592;2023-06-04T13:52:13;20.70;99.90
20483;DHT22;10400;53.198;6.592;2023-06-04T13:54:38;20.10;1.00
20483;DHT22;10400;53.198;6.592;2023-06-04T13:57:04;20.20;1.00
20483;DHT22;10400;53.198;6.592;2023-06-04T13:59:32;20.10;1.00
20483;DHT22;10400;53.198;6.592;2023-06-04T14:01:59;20.20;1.00
20483;DHT22;10400;53.198;6.592;2023-06-04T14:04:25;20.40;1.00
20483;DHT22;10400;53.198;6.592;2023-06-04T14:06:50;20.60;1.00
20483;DHT22;10400;53.198;6.592;2023-06-04T14:09:16;20.40;1.00
20483;DHT22;10400;53.198;6.592;2023-06-04T14:11:42;20.50;1.00
20483;DHT22;10400;53.198;6.592;2023-06-04T14:14:07;20.60;1.00
20483;DHT22;10400;53.198;6.592;2023-06-04T14:16:33;20.70;1.00
20483;DHT22;10400;53.198;6.592;2023-06-04T14:18:59;20.30;1.00
20483;DHT22;10400;53.198;6.592;2023-06-04T14:21:26;20.30;1.00
20483;DHT22;10400;53.198;6.592;2023-06-04T14:23:51;20.30;1.00
20483;DHT22;10400;53.198;6.592;2023-06-04T14:26:17;20.40;1.00
20483;DHT22;10400;53.198;6.592;2023-06-04T14:28:43;20.20;1.00
20483;DHT22;10400;53.198;6.592;2023-06-04T14:31:10;20.00;1.00
20483;DHT22;10400;53.198;6.592;2023-06-04T14:33:35;20.10;1.00
20483;DHT22;10400;53.198;6.592;2023-06-04T14:36:03;20.20;1.00
20483;DHT22;10400;53.198;6.592;2023-06-04T14:38:29;20.20;1.00
20483;DHT22;10400;53.198;6.592;2023-06-04T14:40:55;20.40;1.00
20483;DHT22;10400;53.198;6.592;2023-06-04T14:43:22;20.30;1.00
20483;DHT22;10400;53.198;6.592;2023-06-04T14:45:48;20.10;1.00
20483;DHT22;10400;53.198;6.592;2023-06-04T14:48:13;20.00;1.00
20483;DHT22;10400;53.198;6.592;2023-06-04T14:50:39;19.90;1.00
20483;DHT22;10400;53.198;6.592;2023-06-04T14:53:05;19.60;1.00
20483;DHT22;10400;53.198;6.592;2023-06-04T14:55:33;19.70;1.00
20483;DHT22;10400;53.198;6.592;2023-06-04T14:58:00;19.80;1.00
20483;DHT22;10400;53.198;6.592;2023-06-04T15:00:25;19.80;1.00
20483;DHT22;10400;53.198;6.592;2023-06-04T15:02:51;20.10;1.00
20483;DHT22;10400;53.198;6.592;2023-06-04T15:05:16;19.70;1.00
20483;DHT22;10400;53.198;6.592;2023-06-04T15:07:42;19.80;1.00
20483;DHT22;10400;53.198;6.592;2023-06-04T15:10:08;19.60;1.00
20483;DHT22;10400;53.198;6.592;2023-06-04T15:12:34;19.60;1.00
20483;DHT22;10400;53.198;6.592;2023-06-04T15:15:04;19.60;1.00
20483;DHT22;10400;53.198;6.592;2023-06-04T15:17:30;19.90;1.00
20483;DHT22;10400;53.198;6.592;2023-06-04T15:19:56;20.00;1.00
20483;DHT22;10400;53.198;6.592;2023-06-04T15:22:23;20.00;1.00
20483;DHT22;10400;53.198;6.592;2023-06-04T15:24:50;19.60;1.00
20483;DHT22;10400;53.198;6.592;2023-06-04T15:27:16;19.80;1.00
20483;DHT22;10400;53.198;6.592;2023-06-04T15:29:43;19.60;1.00
20483;DHT22;10400;53.198;6.592;2023-06-04T15:32:08;19.60;1.00
20483;DHT22;10400;53.198;6.592;2023-06-04T15:34:34;19.30;1.00
20483;DHT22;10400;53.198;6.592;2023-06-04T15:36:59;19.20;1.00
20483;DHT22;10400;53.198;6.592;2023-06-04T15:39:25;19.40;1.00
20483;DHT22;10400;53.198;6.592;2023-06-04T15:41:51;19.40;1.00
20483;DHT22;10400;53.198;6.592;2023-06-04T15:44:16;19.40;1.00
20483;DHT22;10400;53.198;6.592;2023-06-04T15:46:42;19.40;1.00
20483;DHT22;10400;53.198;6.592;2023-06-04T15:49:08;19.30;1.00
20483;DHT22;10400;53.198;6.592;2023-06-04T15:51:37;19.40;1.00